sensor_id;sensor_type;location;lat;lon;timestamp;P1;durP1;ratioP1;P2;durP2;ratioP2
8946;SDS011;4508;48.790;9.028;2022-12-11T00:00:33;19.48;;;17.67;;
8946;SDS011;4508;48.790;9.028;2022-12-11T00:03:00;20.25;;;18.40;;
8946;SDS011;4508;48.790;9.028;2022-12-11T00:05:28;19.83;;;18.03;;
8946;SDS011;4508;48.790;9.028;2022-12-11T00:07:56;19.67;;;17.88;;
8946;SDS011;4508;48.790;9.028;2022-12-11T00:10:23;19.95;;;18.15;;
8946;SDS011;4508;48.790;9.028;2022-12-11T00:12:50;18.65;;;16.85;;
8946;SDS011;4508;48.790;9.028;2022-12-11T00:15:17;19.30;;;17.60;;
8946;SDS011;4508;48.790;9.028;2022-12-11T00:17:44;19.98;;;18.10;;
8946;SDS011;4508;48.790;9.028;2022-12-11T00:20:12;18.15;;;16.45;;
8946;SDS011;4508;48.790;9.028;2022-12-11T00:22:39;18.25;;;16.55;;
8946;SDS011;4508;48.790;9.028;2022-12-11T00:25:07;18.92;;;17.33;;
8946;SDS011;4508;48.790;9.028;2022-12-11T00:27:34;17.25;;;15.73;;
8946;SDS011;4508;48.790;9.028;2022-12-11T00:30:02;17.77;;;16.17;;
8946;SDS011;4508;48.790;9.028;2022-12-11T00:32:29;18.67;;;16.97;;
8946;SDS011;4508;48.790;9.028;2022-12-11T00:34:56;17.70;;;16.00;;
8946;SDS011;4508;48.790;9.028;2022-12-11T00:37:23;17.45;;;15.85;;
8946;SDS011;4508;48.790;9.028;2022-12-11T00:39:50;17.27;;;15.77;;
8946;SDS011;4508;48.790;9.028;2022-12-11T00:42:19;18.15;;;16.58;;
8946;SDS011;4508;48.790;9.028;2022-12-11T00:44:46;16.85;;;15.35;;
8946;SDS011;4508;48.790;9.028;2022-12-11T00:47:13;18.20;;;16.50;;
8946;SDS011;4508;48.790;9.028;2022-12-11T00:49:40;17.90;;;16.30;;
8946;SDS011;4508;48.790;9.028;2022-12-11T00:52:07;18.67;;;16.98;;
8946;SDS011;4508;48.790;9.028;2022-12-11T00:54:34;23.05;;;20.92;;
8946;SDS011;4508;48.790;9.028;2022-12-11T00:57:01;24.90;;;22.60;;
8946;SDS011;4508;48.790;9.028;2022-12-11T00:59:30;23.27;;;21.08;;
8946;SDS011;4508;48.790;9.028;2022-12-11T01:01:57;22.70;;;20.67;;
8946;SDS011;4508;48.790;9.028;2022-12-11T01:04:24;24.37;;;22.13;;
8946;SDS011;4508;48.790;9.028;2022-12-11T01:06:51;21.92;;;19.90;;
8946;SDS011;4508;48.790;9.028;2022-12-11T01:09:18;21.20;;;19.30;;
8946;SDS011;4508;48.790;9.028;2022-12-11T01:12:03;21.88;;;19.85;;
8946;SDS011;4508;48.790;9.028;2022-12-11T01:14:31;21.85;;;19.85;;
8946;SDS011;4508;48.790;9.028;2022-12-11T01:16:58;20.25;;;18.45;;
8946;SDS011;4508;48.790;9.028;2022-12-11T01:19:25;19.48;;;17.67;;
8946;SDS011;4508;48.790;9.028;2022-12-11T01:21:52;20.08;;;18.38;;
8946;SDS011;4508;48.790;9.028;2022-12-11T01:24:19;20.48;;;18.67;;
8946;SDS011;4508;48.790;9.028;2022-12-11T01:26:46;19.98;;;18.17;;
8946;SDS011;4508;48.790;9.028;2022-12-11T01:29:13;20.10;;;18.30;;
8946;SDS011;4508;48.790;9.028;2022-12-11T01:31:42;19.30;;;17.60;;
8946;SDS011;4508;48.790;9.028;2022-12-11T01:34:09;19.10;;;17.40;;
8946;SDS011;4508;48.790;9.028;2022-12-11T01:36:36;18.33;;;16.63;;
8946;SDS011;4508;48.790;9.028;2022-12-11T01:39:03;19.08;;;17.27;;
8946;SDS011;4508;48.790;9.028;2022-12-11T01:41:30;19.40;;;17.60;;
8946;SDS011;4508;48.790;9.028;2022-12-11T01:43:58;18.17;;;16.58;;
8946;SDS011;4508;48.790;9.028;2022-12-11T01:46:26;19.42;;;17.67;;
8946;SDS011;4508;48.790;9.028;2022-12-11T01:48:54;17.10;;;15.60;;
8946;SDS011;4508;48.790;9.028;2022-12-11T01:51:22;18.10;;;16.50;;
8946;SDS011;4508;48.790;9.028;2022-12-11T01:53:50;19.35;;;17.55;;
8946;SDS011;4508;48.790;9.028;2022-12-11T01:56:18;19.50;;;17.70;;
8946;SDS011;4508;48.790;9.028;2022-12-11T01:58:46;20.27;;;18.38;;
8946;SDS011;4508;48.790;9.028;2022-12-11T02:01:16;19.45;;;17.65;;
8946;SDS011;4508;48.790;9.028;2022-12-11T02:03:44;19.58;;;17.77;;
8946;SDS011;4508;48.790;9.028;2022-12-11T02:08:54;19.42;;;17.63;;
8946;SDS011;4508;48.790;9.028;2022-12-11T02:11:22;17.75;;;16.15;;
8946;SDS011;4508;48.790;9.028;2022-12-11T02:13:55;18.15;;;16.48;;
8946;SDS011;4508;48.790;9.028;2022-12-11T02:16:25;18.05;;;16.45;;
8946;SDS011;4508;48.790;9.028;2022-12-11T02:18:57;18.23;;;16.63;;
8946;SDS011;4508;48.790;9.028;2022-12-11T02:21:27;17.02;;;15.52;;
8946;SDS011;4508;48.790;9.028;2022-12-11T02:24:02;18.20;;;16.50;;
8946;SDS011;4508;48.790;9.028;2022-12-11T02:26:35;17.67;;;16.08;;
8946;SDS011;4508;48.790;9.028;2022-12-11T02:29:07;18.48;;;16.77;;
8946;SDS011;4508;48.790;9.028;2022-12-11T02:31:37;17.33;;;15.73;;
8946;SDS011;4508;48.790;9.028;2022-12-11T02:34:07;17.80;;;16.20;;
8946;SDS011;4508;48.790;9.028;2022-12-11T02:36:36;18.55;;;16.85;;
8946;SDS011;4508;48.790;9.028;2022-12-11T02:39:04;18.00;;;16.40;;
8946;SDS011;4508;48.790;9.028;2022-12-11T02:41:32;18.70;;;17.00;;
8946;SDS011;4508;48.790;9.028;2022-12-11T02:44:00;19.33;;;17.52;;
8946;SDS011;4508;48.790;9.028;2022-12-11T02:46:29;18.40;;;16.70;;
8946;SDS011;4508;48.790;9.028;2022-12-11T02:48:58;18.98;;;17.27;;
8946;SDS011;4508;48.790;9.028;2022-12-11T02:51:27;18.52;;;16.83;;
8946;SDS011;4508;48.790;9.028;2022-12-11T02:53:55;19.15;;;17.45;;
8946;SDS011;4508;48.790;9.028;2022-12-11T02:56:24;18.63;;;16.88;;
8946;SDS011;4508;48.790;9.028;2022-12-11T02:58:53;18.73;;;16.98;;
8946;SDS011;4508;48.790;9.028;2022-12-11T03:01:21;18.75;;;17.05;;
8946;SDS011;4508;48.790;9.028;2022-12-11T03:03:49;17.67;;;16.07;;
8946;SDS011;4508;48.790;9.028;2022-12-11T03:06:17;18.30;;;16.70;;
8946;SDS011;4508;48.790;9.028;2022-12-11T03:08:45;18.83;;;17.02;;
8946;SDS011;4508;48.790;9.028;2022-12-11T03:11:15;17.80;;;16.20;;
8946;SDS011;4508;48.790;9.028;2022-12-11T03:13:43;18.15;;;16.55;;
8946;SDS011;4508;48.790;9.028;2022-12-11T03:16:10;18.27;;;16.58;;
8946;SDS011;4508;48.790;9.028;2022-12-11T03:18:40;18.15;;;16.55;;
8946;SDS011;4508;48.790;9.028;2022-12-11T03:21:11;18.73;;;17.08;;
8946;SDS011;4508;48.790;9.028;2022-12-11T03:23:42;18.08;;;16.40;;
8946;SDS011;4508;48.790;9.028;2022-12-11T03:26:10;17.75;;;16.15;;
8946;SDS011;4508;48.790;9.028;2022-12-11T03:28:39;17.70;;;16.10;;
8946;SDS011;4508;48.790;9.028;2022-12-11T03:31:08;17.17;;;15.68;;
8946;SDS011;4508;48.790;9.028;2022-12-11T03:33:38;17.15;;;15.65;;
8946;SDS011;4508;48.790;9.028;2022-12-11T03:36:06;17.88;;;16.27;;
8946;SDS011;4508;48.790;9.028;2022-12-11T03:38:37;17.88;;;16.27;;
8946;SDS011;4508;48.790;9.028;2022-12-11T03:41:07;17.90;;;16.38;;
8946;SDS011;4508;48.790;9.028;2022-12-11T03:43:34;18.00;;;16.40;;
8946;SDS011;4508;48.790;9.028;2022-12-11T03:46:02;17.65;;;16.15;;
8946;SDS011;4508;48.790;9.028;2022-12-11T03:48:31;16.85;;;15.35;;
8946;SDS011;4508;48.790;9.028;2022-12-11T03:50:59;16.10;;;14.70;;
8946;SDS011;4508;48.790;9.028;2022-12-11T03:53:27;16.40;;;14.90;;
8946;SDS011;4508;48.790;9.028;2022-12-11T03:55:56;16.85;;;15.35;;
8946;SDS011;4508;48.790;9.028;2022-12-11T03:58:24;16.10;;;14.60;;
8946;SDS011;4508;48.790;9.028;2022-12-11T04:00:51;17.50;;;15.95;;
8946;SDS011;4508;48.790;9.028;2022-12-11T04:03:18;17.07;;;15.57;;
8946;SDS011;4508;48.790;9.028;2022-12-11T04:05:47;17.08;;;15.57;;
8946;SDS011;4508;48.790;9.028;2022-12-11T04:08:14;17.00;;;15.50;;
8946;SDS011;4508;48.790;9.028;2022-12-11T04:10:41;17.00;;;15.50;;
8946;SDS011;4508;48.790;9.028;2022-12-11T04:13:09;17.73;;;16.17;;
8946;SDS011;4508;48.790;9.028;2022-12-11T04:15:37;16.92;;;15.43;;
8946;SDS011;4508;48.790;9.028;2022-12-11T04:18:03;18.02;;;16.42;;
8946;SDS011;4508;48.790;9.028;2022-12-11T04:20:51;17.35;;;15.77;;
8946;SDS011;4508;48.790;9.028;2022-12-11T04:23:36;17.95;;;16.35;;
8946;SDS011;4508;48.790;9.028;2022-12-11T04:26:20;17.20;;;15.60;;
8946;SDS011;4508;48.790;9.028;2022-12-11T04:28:49;17.17;;;15.57;;
8946;SDS011;4508;48.790;9.028;2022-12-11T04:31:16;17.13;;;15.60;;
8946;SDS011;4508;48.790;9.028;2022-12-11T04:33:44;17.25;;;15.75;;
8946;SDS011;4508;48.790;9.028;2022-12-11T04:36:11;16.20;;;14.70;;
8946;SDS011;4508;48.790;9.028;2022-12-11T04:38:39;16.80;;;15.20;;
8946;SDS011;4508;48.790;9.028;2022-12-11T04:41:06;15.70;;;14.30;;
8946;SDS011;4508;48.790;9.028;2022-12-11T04:43:34;16.30;;;14.80;;
8946;SDS011;4508;48.790;9.028;2022-12-11T04:46:03;14.80;;;13.48;;
8946;SDS011;4508;48.790;9.028;2022-12-11T04:48:30;16.45;;;14.98;;
8946;SDS011;4508;48.790;9.028;2022-12-11T04:50:57;16.17;;;14.68;;
8946;SDS011;4508;48.790;9.028;2022-12-11T04:53:25;15.70;;;14.30;;
8946;SDS011;4508;48.790;9.028;2022-12-11T04:55:52;16.95;;;15.43;;
8946;SDS011;4508;48.790;9.028;2022-12-11T04:58:20;16.20;;;14.70;;
8946;SDS011;4508;48.790;9.028;2022-12-11T05:00:47;15.33;;;13.93;;
8946;SDS011;4508;48.790;9.028;2022-12-11T05:03:15;15.82;;;14.43;;
8946;SDS011;4508;48.790;9.028;2022-12-11T05:05:46;15.77;;;14.38;;
8946;SDS011;4508;48.790;9.028;2022-12-11T05:08:13;15.25;;;13.85;;
8946;SDS011;4508;48.790;9.028;2022-12-11T05:10:40;15.48;;;14.07;;
8946;SDS011;4508;48.790;9.028;2022-12-11T05:13:07;16.23;;;14.63;;
8946;SDS011;4508;48.790;9.028;2022-12-11T05:15:37;16.38;;;14.88;;
8946;SDS011;4508;48.790;9.028;2022-12-11T05:18:04;15.45;;;13.95;;
8946;SDS011;4508;48.790;9.028;2022-12-11T05:20:32;15.02;;;13.63;;
8946;SDS011;4508;48.790;9.028;2022-12-11T05:22:59;15.63;;;14.23;;
8946;SDS011;4508;48.790;9.028;2022-12-11T05:25:26;15.20;;;13.77;;
8946;SDS011;4508;48.790;9.028;2022-12-11T05:27:53;15.15;;;13.75;;
8946;SDS011;4508;48.790;9.028;2022-12-11T05:30:20;14.63;;;13.25;;
8946;SDS011;4508;48.790;9.028;2022-12-11T05:32:47;15.38;;;13.88;;
8946;SDS011;4508;48.790;9.028;2022-12-11T05:35:15;14.80;;;13.50;;
8946;SDS011;4508;48.790;9.028;2022-12-11T05:37:43;15.13;;;13.63;;
8946;SDS011;4508;48.790;9.028;2022-12-11T05:40:10;15.05;;;13.65;;
8946;SDS011;4508;48.790;9.028;2022-12-11T05:42:37;16.00;;;14.50;;
8946;SDS011;4508;48.790;9.028;2022-12-11T05:45:05;14.77;;;13.37;;
8946;SDS011;4508;48.790;9.028;2022-12-11T05:47:32;15.93;;;14.48;;
8946;SDS011;4508;48.790;9.028;2022-12-11T05:49:59;15.55;;;13.98;;
8946;SDS011;4508;48.790;9.028;2022-12-11T05:52:26;14.80;;;13.43;;
8946;SDS011;4508;48.790;9.028;2022-12-11T05:54:55;14.82;;;13.43;;
8946;SDS011;4508;48.790;9.028;2022-12-11T05:57:22;14.77;;;13.37;;
8946;SDS011;4508;48.790;9.028;2022-12-11T05:59:49;15.70;;;14.20;;
8946;SDS011;4508;48.790;9.028;2022-12-11T06:02:16;15.50;;;13.90;;
8946;SDS011;4508;48.790;9.028;2022-12-11T06:04:43;15.97;;;14.47;;
8946;SDS011;4508;48.790;9.028;2022-12-11T06:07:10;16.45;;;14.77;;
8946;SDS011;4508;48.790;9.028;2022-12-11T06:09:37;15.63;;;14.13;;
8946;SDS011;4508;48.790;9.028;2022-12-11T06:12:05;15.77;;;14.27;;
8946;SDS011;4508;48.790;9.028;2022-12-11T06:14:32;16.67;;;15.18;;
8946;SDS011;4508;48.790;9.028;2022-12-11T06:16:59;17.33;;;15.63;;
8946;SDS011;4508;48.790;9.028;2022-12-11T06:19:26;16.80;;;15.20;;
8946;SDS011;4508;48.790;9.028;2022-12-11T06:21:54;17.75;;;16.05;;
8946;SDS011;4508;48.790;9.028;2022-12-11T06:24:21;19.15;;;17.35;;
8946;SDS011;4508;48.790;9.028;2022-12-11T06:26:48;16.95;;;15.40;;
8946;SDS011;4508;48.790;9.028;2022-12-11T06:29:16;17.77;;;16.10;;
8946;SDS011;4508;48.790;9.028;2022-12-11T06:31:43;18.73;;;16.95;;
8946;SDS011;4508;48.790;9.028;2022-12-11T06:34:10;18.05;;;16.35;;
8946;SDS011;4508;48.790;9.028;2022-12-11T06:36:38;18.60;;;16.88;;
8946;SDS011;4508;48.790;9.028;2022-12-11T06:39:05;19.02;;;17.23;;
8946;SDS011;4508;48.790;9.028;2022-12-11T06:41:33;18.58;;;16.70;;
8946;SDS011;4508;48.790;9.028;2022-12-11T06:44:00;17.70;;;15.95;;
8946;SDS011;4508;48.790;9.028;2022-12-11T06:46:28;19.00;;;17.17;;
8946;SDS011;4508;48.790;9.028;2022-12-11T06:48:55;19.33;;;17.42;;
8946;SDS011;4508;48.790;9.028;2022-12-11T06:51:22;18.08;;;16.38;;
8946;SDS011;4508;48.790;9.028;2022-12-11T06:53:50;18.33;;;16.60;;
8946;SDS011;4508;48.790;9.028;2022-12-11T06:56:17;19.08;;;17.27;;
8946;SDS011;4508;48.790;9.028;2022-12-11T06:58:44;18.17;;;16.48;;
8946;SDS011;4508;48.790;9.028;2022-12-11T07:01:15;18.50;;;16.80;;
8946;SDS011;4508;48.790;9.028;2022-12-11T07:03:44;18.77;;;16.98;;
8946;SDS011;4508;48.790;9.028;2022-12-11T07:06:11;18.15;;;16.35;;
8946;SDS011;4508;48.790;9.028;2022-12-11T07:08:38;18.55;;;16.75;;
8946;SDS011;4508;48.790;9.028;2022-12-11T07:11:07;19.27;;;17.40;;
8946;SDS011;4508;48.790;9.028;2022-12-11T07:13:34;17.88;;;16.17;;
8946;SDS011;4508;48.790;9.028;2022-12-11T07:16:01;17.90;;;16.20;;
8946;SDS011;4508;48.790;9.028;2022-12-11T07:18:34;18.90;;;17.10;;
8946;SDS011;4508;48.790;9.028;2022-12-11T07:21:03;17.70;;;16.08;;
8946;SDS011;4508;48.790;9.028;2022-12-11T07:23:30;18.00;;;16.30;;
8946;SDS011;4508;48.790;9.028;2022-12-11T07:25:57;18.42;;;16.73;;
8946;SDS011;4508;48.790;9.028;2022-12-11T07:28:24;18.58;;;16.88;;
8946;SDS011;4508;48.790;9.028;2022-12-11T07:30:51;18.35;;;16.65;;
8946;SDS011;4508;48.790;9.028;2022-12-11T07:33:18;18.83;;;16.88;;
8946;SDS011;4508;48.790;9.028;2022-12-11T07:35:45;17.90;;;16.30;;
8946;SDS011;4508;48.790;9.028;2022-12-11T07:38:13;17.00;;;15.50;;
8946;SDS011;4508;48.790;9.028;2022-12-11T07:40:41;16.67;;;15.05;;
8946;SDS011;4508;48.790;9.028;2022-12-11T07:43:08;17.73;;;16.02;;
8946;SDS011;4508;48.790;9.028;2022-12-11T07:45:35;17.15;;;15.55;;
8946;SDS011;4508;48.790;9.028;2022-12-11T07:48:02;16.52;;;14.93;;
8946;SDS011;4508;48.790;9.028;2022-12-11T07:50:29;17.00;;;15.50;;
8946;SDS011;4508;48.790;9.028;2022-12-11T07:52:56;17.13;;;15.52;;
8946;SDS011;4508;48.790;9.028;2022-12-11T07:55:25;16.42;;;14.88;;
8946;SDS011;4508;48.790;9.028;2022-12-11T07:57:52;15.80;;;14.40;;
8946;SDS011;4508;48.790;9.028;2022-12-11T08:00:19;15.88;;;14.38;;
8946;SDS011;4508;48.790;9.028;2022-12-11T08:02:46;15.30;;;13.80;;
8946;SDS011;4508;48.790;9.028;2022-12-11T08:05:13;16.55;;;14.95;;
8946;SDS011;4508;48.790;9.028;2022-12-11T08:07:40;16.40;;;14.90;;
8946;SDS011;4508;48.790;9.028;2022-12-11T08:10:08;15.63;;;14.15;;
8946;SDS011;4508;48.790;9.028;2022-12-11T08:12:36;16.25;;;14.75;;
8946;SDS011;4508;48.790;9.028;2022-12-11T08:15:04;15.98;;;14.48;;
8946;SDS011;4508;48.790;9.028;2022-12-11T08:17:31;15.48;;;13.98;;
8946;SDS011;4508;48.790;9.028;2022-12-11T08:19:58;15.35;;;13.93;;
8946;SDS011;4508;48.790;9.028;2022-12-11T08:22:25;16.33;;;14.75;;
8946;SDS011;4508;48.790;9.028;2022-12-11T08:24:52;15.70;;;14.20;;
8946;SDS011;4508;48.790;9.028;2022-12-11T08:27:19;16.05;;;14.55;;
8946;SDS011;4508;48.790;9.028;2022-12-11T08:29:47;16.08;;;14.57;;
8946;SDS011;4508;48.790;9.028;2022-12-11T08:32:14;15.43;;;13.95;;
8946;SDS011;4508;48.790;9.028;2022-12-11T08:34:42;16.27;;;14.73;;
8946;SDS011;4508;48.790;9.028;2022-12-11T08:37:09;16.23;;;14.73;;
8946;SDS011;4508;48.790;9.028;2022-12-11T08:39:37;16.13;;;14.63;;
8946;SDS011;4508;48.790;9.028;2022-12-11T08:42:05;15.48;;;13.98;;
8946;SDS011;4508;48.790;9.028;2022-12-11T08:44:32;16.90;;;15.30;;
8946;SDS011;4508;48.790;9.028;2022-12-11T08:47:00;16.83;;;15.20;;
8946;SDS011;4508;48.790;9.028;2022-12-11T08:49:27;16.92;;;15.32;;
8946;SDS011;4508;48.790;9.028;2022-12-11T08:51:55;16.95;;;15.35;;
8946;SDS011;4508;48.790;9.028;2022-12-11T08:54:22;17.30;;;15.70;;
8946;SDS011;4508;48.790;9.028;2022-12-11T08:56:49;16.43;;;14.93;;
8946;SDS011;4508;48.790;9.028;2022-12-11T08:59:16;15.70;;;14.18;;
8946;SDS011;4508;48.790;9.028;2022-12-11T09:01:43;16.90;;;15.30;;
8946;SDS011;4508;48.790;9.028;2022-12-11T09:04:11;16.75;;;15.15;;
8946;SDS011;4508;48.790;9.028;2022-12-11T09:06:39;15.85;;;14.35;;
8946;SDS011;4508;48.790;9.028;2022-12-11T09:09:06;16.17;;;14.60;;
8946;SDS011;4508;48.790;9.028;2022-12-11T09:11:34;15.95;;;14.45;;
8946;SDS011;4508;48.790;9.028;2022-12-11T09:14:02;16.40;;;14.90;;
8946;SDS011;4508;48.790;9.028;2022-12-11T09:16:29;15.90;;;14.40;;
8946;SDS011;4508;48.790;9.028;2022-12-11T09:18:57;15.23;;;13.77;;
8946;SDS011;4508;48.790;9.028;2022-12-11T09:21:26;15.35;;;13.85;;
8946;SDS011;4508;48.790;9.028;2022-12-11T09:23:54;15.98;;;14.48;;
8946;SDS011;4508;48.790;9.028;2022-12-11T09:26:21;15.37;;;13.97;;
8946;SDS011;4508;48.790;9.028;2022-12-11T09:28:49;15.63;;;14.13;;
8946;SDS011;4508;48.790;9.028;2022-12-11T09:31:18;16.05;;;14.55;;
8946;SDS011;4508;48.790;9.028;2022-12-11T09:33:47;14.82;;;13.43;;
8946;SDS011;4508;48.790;9.028;2022-12-11T09:36:14;14.90;;;13.57;;
8946;SDS011;4508;48.790;9.028;2022-12-11T09:38:42;15.30;;;13.90;;
8946;SDS011;4508;48.790;9.028;2022-12-11T09:41:22;15.57;;;14.10;;
8946;SDS011;4508;48.790;9.028;2022-12-11T09:43:56;15.40;;;13.90;;
8946;SDS011;4508;48.790;9.028;2022-12-11T09:46:25;15.15;;;13.65;;
8946;SDS011;4508;48.790;9.028;2022-12-11T09:48:52;14.75;;;13.35;;
8946;SDS011;4508;48.790;9.028;2022-12-11T09:51:20;15.18;;;13.77;;
8946;SDS011;4508;48.790;9.028;2022-12-11T09:53:51;14.38;;;13.00;;
8946;SDS011;4508;48.790;9.028;2022-12-11T09:56:21;14.87;;;13.47;;
8946;SDS011;4508;48.790;9.028;2022-12-11T09:58:56;14.90;;;13.50;;
8946;SDS011;4508;48.790;9.028;2022-12-11T10:01:28;14.70;;;13.30;;
8946;SDS011;4508;48.790;9.028;2022-12-11T10:06:52;14.02;;;12.73;;
8946;SDS011;4508;48.790;9.028;2022-12-11T10:09:26;14.20;;;12.90;;
8946;SDS011;4508;48.790;9.028;2022-12-11T10:11:57;14.50;;;13.13;;
8946;SDS011;4508;48.790;9.028;2022-12-11T10:14:27;14.17;;;12.77;;
8946;SDS011;4508;48.790;9.028;2022-12-11T10:16:58;13.38;;;12.13;;
8946;SDS011;4508;48.790;9.028;2022-12-11T10:19:29;14.00;;;12.70;;
8946;SDS011;4508;48.790;9.028;2022-12-11T10:21:56;13.95;;;12.65;;
8946;SDS011;4508;48.790;9.028;2022-12-11T10:24:27;13.30;;;12.10;;
8946;SDS011;4508;48.790;9.028;2022-12-11T10:26:57;14.10;;;12.80;;
8946;SDS011;4508;48.790;9.028;2022-12-11T10:29:24;13.00;;;11.80;;
8946;SDS011;4508;48.790;9.028;2022-12-11T10:31:52;12.93;;;11.63;;
8946;SDS011;4508;48.790;9.028;2022-12-11T10:34:23;13.02;;;11.73;;
8946;SDS011;4508;48.790;9.028;2022-12-11T10:36:55;13.55;;;12.25;;
8946;SDS011;4508;48.790;9.028;2022-12-11T10:39:22;12.05;;;10.95;;
8946;SDS011;4508;48.790;9.028;2022-12-11T10:41:50;12.50;;;11.30;;
8946;SDS011;4508;48.790;9.028;2022-12-11T10:44:18;12.30;;;11.10;;
8946;SDS011;4508;48.790;9.028;2022-12-11T10:46:46;11.68;;;10.60;;
8946;SDS011;4508;48.790;9.028;2022-12-11T10:49:20;11.93;;;10.73;;
8946;SDS011;4508;48.790;9.028;2022-12-11T10:51:48;12.02;;;10.93;;
8946;SDS011;4508;48.790;9.028;2022-12-11T10:54:16;12.27;;;11.07;;
8946;SDS011;4508;48.790;9.028;2022-12-11T10:56:44;12.38;;;11.27;;
8946;SDS011;4508;48.790;9.028;2022-12-11T10:59:14;12.48;;;11.27;;
8946;SDS011;4508;48.790;9.028;2022-12-11T11:01:44;12.07;;;10.88;;
8946;SDS011;4508;48.790;9.028;2022-12-11T11:04:13;11.85;;;10.75;;
8946;SDS011;4508;48.790;9.028;2022-12-11T11:06:41;11.93;;;10.82;;
8946;SDS011;4508;48.790;9.028;2022-12-11T11:09:26;12.93;;;11.65;;
8946;SDS011;4508;48.790;9.028;2022-12-11T11:11:54;12.53;;;11.33;;
8946;SDS011;4508;48.790;9.028;2022-12-11T11:14:22;12.25;;;11.05;;
8946;SDS011;4508;48.790;9.028;2022-12-11T11:16:50;11.90;;;10.80;;
8946;SDS011;4508;48.790;9.028;2022-12-11T11:19:18;13.50;;;12.20;;
8946;SDS011;4508;48.790;9.028;2022-12-11T11:21:47;13.57;;;12.27;;
8946;SDS011;4508;48.790;9.028;2022-12-11T11:24:18;12.48;;;11.27;;
8946;SDS011;4508;48.790;9.028;2022-12-11T11:26:47;12.48;;;11.27;;
8946;SDS011;4508;48.790;9.028;2022-12-11T11:29:18;12.90;;;11.60;;
8946;SDS011;4508;48.790;9.028;2022-12-11T11:31:50;12.55;;;11.25;;
8946;SDS011;4508;48.790;9.028;2022-12-11T11:34:17;13.10;;;11.80;;
8946;SDS011;4508;48.790;9.028;2022-12-11T11:36:53;13.02;;;11.73;;
8946;SDS011;4508;48.790;9.028;2022-12-11T11:39:22;13.48;;;12.18;;
8946;SDS011;4508;48.790;9.028;2022-12-11T11:41:53;16.88;;;15.27;;
8946;SDS011;4508;48.790;9.028;2022-12-11T11:44:23;16.77;;;15.18;;
8946;SDS011;4508;48.790;9.028;2022-12-11T11:46:57;17.13;;;15.53;;
8946;SDS011;4508;48.790;9.028;2022-12-11T11:49:27;16.43;;;14.83;;
8946;SDS011;4508;48.790;9.028;2022-12-11T11:52:00;16.45;;;14.95;;
8946;SDS011;4508;48.790;9.028;2022-12-11T11:54:30;16.80;;;15.20;;
8946;SDS011;4508;48.790;9.028;2022-12-11T11:57:00;18.13;;;16.40;;
8946;SDS011;4508;48.790;9.028;2022-12-11T11:59:29;18.35;;;16.55;;
8946;SDS011;4508;48.790;9.028;2022-12-11T12:01:59;19.23;;;17.42;;
8946;SDS011;4508;48.790;9.028;2022-12-11T12:04:30;18.70;;;16.80;;
8946;SDS011;4508;48.790;9.028;2022-12-11T12:07:14;19.65;;;17.85;;
8946;SDS011;4508;48.790;9.028;2022-12-11T12:09:49;19.15;;;17.27;;
8946;SDS011;4508;48.790;9.028;2022-12-11T12:12:21;19.08;;;17.17;;
8946;SDS011;4508;48.790;9.028;2022-12-11T12:15:08;17.63;;;15.93;;
8946;SDS011;4508;48.790;9.028;2022-12-11T12:17:46;18.40;;;16.60;;
8946;SDS011;4508;48.790;9.028;2022-12-11T12:20:16;18.17;;;16.48;;
8946;SDS011;4508;48.790;9.028;2022-12-11T12:22:50;18.00;;;16.30;;
8946;SDS011;4508;48.790;9.028;2022-12-11T12:25:21;18.20;;;16.50;;
8946;SDS011;4508;48.790;9.028;2022-12-11T12:27:52;17.03;;;15.43;;
8946;SDS011;4508;48.790;9.028;2022-12-11T12:30:21;16.73;;;15.15;;
8946;SDS011;4508;48.790;9.028;2022-12-11T12:32:53;15.43;;;13.88;;
8946;SDS011;4508;48.790;9.028;2022-12-11T12:35:29;15.90;;;14.40;;
8946;SDS011;4508;48.790;9.028;2022-12-11T12:37:57;16.08;;;14.57;;
8946;SDS011;4508;48.790;9.028;2022-12-11T12:40:29;14.05;;;12.73;;
8946;SDS011;4508;48.790;9.028;2022-12-11T12:42:59;14.73;;;13.30;;
8946;SDS011;4508;48.790;9.028;2022-12-11T12:45:29;15.55;;;14.05;;
8946;SDS011;4508;48.790;9.028;2022-12-11T12:47:58;17.95;;;16.25;;
8946;SDS011;4508;48.790;9.028;2022-12-11T12:50:25;18.48;;;16.67;;
8946;SDS011;4508;48.790;9.028;2022-12-11T12:52:54;17.98;;;16.25;;
8946;SDS011;4508;48.790;9.028;2022-12-11T12:55:22;17.75;;;16.05;;
8946;SDS011;4508;48.790;9.028;2022-12-11T12:57:51;15.63;;;14.13;;
8946;SDS011;4508;48.790;9.028;2022-12-11T13:00:29;16.77;;;15.07;;
8946;SDS011;4508;48.790;9.028;2022-12-11T13:02:58;18.67;;;16.98;;
8946;SDS011;4508;48.790;9.028;2022-12-11T13:05:27;18.30;;;16.60;;
8946;SDS011;4508;48.790;9.028;2022-12-11T13:07:56;17.83;;;16.13;;
8946;SDS011;4508;48.790;9.028;2022-12-11T13:10:24;18.13;;;16.43;;
8946;SDS011;4508;48.790;9.028;2022-12-11T13:12:53;18.17;;;16.48;;
8946;SDS011;4508;48.790;9.028;2022-12-11T13:15:32;17.88;;;16.17;;
8946;SDS011;4508;48.790;9.028;2022-12-11T13:18:02;18.73;;;16.92;;
8946;SDS011;4508;48.790;9.028;2022-12-11T13:20:30;18.48;;;16.67;;
8946;SDS011;4508;48.790;9.028;2022-12-11T13:23:08;18.38;;;16.63;;
8946;SDS011;4508;48.790;9.028;2022-12-11T13:25:46;18.40;;;16.70;;
8946;SDS011;4508;48.790;9.028;2022-12-11T13:28:24;18.60;;;16.88;;
8946;SDS011;4508;48.790;9.028;2022-12-11T13:30:58;19.73;;;17.73;;
8946;SDS011;4508;48.790;9.028;2022-12-11T13:33:27;20.23;;;18.15;;
8946;SDS011;4508;48.790;9.028;2022-12-11T13:36:11;19.00;;;17.17;;
8946;SDS011;4508;48.790;9.028;2022-12-11T13:38:44;18.30;;;16.60;;
8946;SDS011;4508;48.790;9.028;2022-12-11T13:41:11;18.85;;;16.90;;
8946;SDS011;4508;48.790;9.028;2022-12-11T13:43:40;19.03;;;17.23;;
8946;SDS011;4508;48.790;9.028;2022-12-11T13:46:08;18.92;;;17.15;;
8946;SDS011;4508;48.790;9.028;2022-12-11T13:48:37;18.73;;;16.92;;
8946;SDS011;4508;48.790;9.028;2022-12-11T13:51:06;18.95;;;17.05;;
8946;SDS011;4508;48.790;9.028;2022-12-11T13:53:33;18.50;;;16.63;;
8946;SDS011;4508;48.790;9.028;2022-12-11T13:56:01;18.85;;;16.95;;
8946;SDS011;4508;48.790;9.028;2022-12-11T13:58:29;17.65;;;15.95;;
8946;SDS011;4508;48.790;9.028;2022-12-11T14:01:03;18.30;;;16.52;;
8946;SDS011;4508;48.790;9.028;2022-12-11T14:03:32;19.15;;;17.35;;
8946;SDS011;4508;48.790;9.028;2022-12-11T14:06:00;20.00;;;18.10;;
8946;SDS011;4508;48.790;9.028;2022-12-11T14:08:31;19.60;;;17.60;;
8946;SDS011;4508;48.790;9.028;2022-12-11T14:10:59;18.60;;;16.80;;
8946;SDS011;4508;48.790;9.028;2022-12-11T14:13:26;18.48;;;16.67;;
8946;SDS011;4508;48.790;9.028;2022-12-11T14:15:57;19.85;;;17.95;;
8946;SDS011;4508;48.790;9.028;2022-12-11T14:18:25;19.25;;;17.38;;
8946;SDS011;4508;48.790;9.028;2022-12-11T14:20:53;19.77;;;17.88;;
8946;SDS011;4508;48.790;9.028;2022-12-11T14:23:22;19.73;;;17.80;;
8946;SDS011;4508;48.790;9.028;2022-12-11T14:25:53;20.45;;;18.45;;
8946;SDS011;4508;48.790;9.028;2022-12-11T14:28:21;22.15;;;19.95;;
8946;SDS011;4508;48.790;9.028;2022-12-11T14:30:51;22.85;;;20.55;;
8946;SDS011;4508;48.790;9.028;2022-12-11T14:33:19;23.17;;;20.88;;
8946;SDS011;4508;48.790;9.028;2022-12-11T14:35:47;23.85;;;21.45;;
8946;SDS011;4508;48.790;9.028;2022-12-11T14:38:15;25.08;;;22.50;;
8946;SDS011;4508;48.790;9.028;2022-12-11T14:40:46;23.60;;;21.10;;
8946;SDS011;4508;48.790;9.028;2022-12-11T14:43:15;23.70;;;21.30;;
8946;SDS011;4508;48.790;9.028;2022-12-11T14:45:46;24.55;;;22.05;;
8946;SDS011;4508;48.790;9.028;2022-12-11T14:48:15;24.55;;;21.98;;
8946;SDS011;4508;48.790;9.028;2022-12-11T14:50:43;23.63;;;21.23;;
8946;SDS011;4508;48.790;9.028;2022-12-11T14:53:12;24.10;;;21.70;;
8946;SDS011;4508;48.790;9.028;2022-12-11T14:55:41;24.55;;;22.05;;
8946;SDS011;4508;48.790;9.028;2022-12-11T14:58:14;25.05;;;22.45;;
8946;SDS011;4508;48.790;9.028;2022-12-11T15:00:41;24.90;;;22.35;;
8946;SDS011;4508;48.790;9.028;2022-12-11T15:03:19;25.52;;;22.92;;